sensor_id;sensor_type;location;lat;lon;timestamp;pressure;altitude;pressure_sealevel;temperature;humidity
52935;BME280;38802;50.198;19.796;2024-02-04T00:00:02;96009.52;;;5.19;100.00
52935;BME280;38802;50.198;19.796;2024-02-04T00:02:38;96006.10;;;5.21;100.00
52935;BME280;38802;50.198;19.796;2024-02-04T00:05:06;96006.71;;;5.20;100.00
52935;BME280;38802;50.198;19.796;2024-02-04T00:07:34;96007.42;;;5.19;100.00
52935;BME280;38802;50.198;19.796;2024-02-04T00:10:02;96006.02;;;5.17;100.00
52935;BME280;38802;50.198;19.796;2024-02-04T00:12:31;95999.61;;;5.18;100.00
52935;BME280;38802;50.198;19.796;2024-02-04T00:14:59;95997.45;;;5.19;100.00
52935;BME280;38802;50.198;19.796;2024-02-04T00:17:29;95995.95;;;5.18;100.00
52935;BME280;38802;50.198;19.796;2024-02-04T00:20:00;95998.98;;;5.19;100.00
52935;BME280;38802;50.198;19.796;2024-02-04T00:22:28;95984.23;;;5.21;100.00
52935;BME280;38802;50.198;19.796;2024-02-04T00:24:56;95991.86;;;5.20;100.00
52935;BME280;38802;50.198;19.796;2024-02-04T00:27:33;95979.29;;;5.21;100.00
52935;BME280;38802;50.198;19.796;2024-02-04T00:30:01;95979.48;;;5.20;100.00
52935;BME280;38802;50.198;19.796;2024-02-04T00:32:30;95985.37;;;5.20;100.00
52935;BME280;38802;50.198;19.796;2024-02-04T00:34:58;95980.77;;;5.19;100.00
52935;BME280;38802;50.198;19.796;2024-02-04T00:37:26;95978.30;;;5.17;100.00
52935;BME280;38802;50.198;19.796;2024-02-04T00:39:54;95981.78;;;5.19;100.00
52935;BME280;38802;50.198;19.796;2024-02-04T00:42:22;95984.27;;;5.21;100.00
52935;BME280;38802;50.198;19.796;2024-02-04T00:44:50;95989.16;;;5.19;100.00
52935;BME280;38802;50.198;19.796;2024-02-04T00:47:18;95983.20;;;5.16;100.00
52935;BME280;38802;50.198;19.796;2024-02-04T00:49:46;95985.31;;;5.18;100.00
52935;BME280;38802;50.198;19.796;2024-02-04T00:52:15;95986.69;;;5.15;100.00
52935;BME280;38802;50.198;19.796;2024-02-04T00:54:43;95988.05;;;5.18;100.00
52935;BME280;38802;50.198;19.796;2024-02-04T00:57:11;95990.04;;;5.19;100.00
52935;BME280;38802;50.198;19.796;2024-02-04T00:59:39;95996.16;;;5.17;100.00
52935;BME280;38802;50.198;19.796;2024-02-04T01:02:07;95994.33;;;5.19;100.00
52935;BME280;38802;50.198;19.796;2024-02-04T01:04:35;95988.14;;;5.19;100.00
52935;BME280;38802;50.198;19.796;2024-02-04T01:07:03;95997.74;;;5.17;100.00
52935;BME280;38802;50.198;19.796;2024-02-04T01:09:32;96004.08;;;5.15;100.00
52935;BME280;38802;50.198;19.796;2024-02-04T01:12:00;96000.85;;;5.17;100.00
52935;BME280;38802;50.198;19.796;2024-02-04T01:14:28;95996.39;;;5.17;100.00
52935;BME280;38802;50.198;19.796;2024-02-04T01:16:56;95995.11;;;5.15;100.00
52935;BME280;38802;50.198;19.796;2024-02-04T01:19:24;95989.63;;;5.15;100.00
52935;BME280;38802;50.198;19.796;2024-02-04T01:21:52;95991.17;;;5.15;100.00
52935;BME280;38802;50.198;19.796;2024-02-04T01:24:21;95987.80;;;5.14;100.00
52935;BME280;38802;50.198;19.796;2024-02-04T01:26:49;95985.51;;;5.15;100.00
52935;BME280;38802;50.198;19.796;2024-02-04T01:29:17;95979.25;;;5.15;100.00
52935;BME280;38802;50.198;19.796;2024-02-04T01:31:45;95977.44;;;5.12;100.00
52935;BME280;38802;50.198;19.796;2024-02-04T01:34:13;95976.48;;;5.10;100.00
52935;BME280;38802;50.198;19.796;2024-02-04T01:36:41;95975.79;;;5.08;100.00
52935;BME280;38802;50.198;19.796;2024-02-04T01:39:09;95975.92;;;5.06;100.00
52935;BME280;38802;50.198;19.796;2024-02-04T01:41:39;95974.79;;;5.07;100.00
52935;BME280;38802;50.198;19.796;2024-02-04T01:44:07;95973.33;;;5.09;100.00
52935;BME280;38802;50.198;19.796;2024-02-04T01:46:35;95971.81;;;5.08;100.00
52935;BME280;38802;50.198;19.796;2024-02-04T01:49:03;95969.27;;;5.05;100.00
52935;BME280;38802;50.198;19.796;2024-02-04T01:51:32;95972.05;;;5.02;100.00
52935;BME280;38802;50.198;19.796;2024-02-04T01:54:00;95967.02;;;5.02;100.00
52935;BME280;38802;50.198;19.796;2024-02-04T01:56:29;95969.04;;;5.03;100.00
52935;BME280;38802;50.198;19.796;2024-02-04T01:58:58;95968.48;;;5.03;100.00
52935;BME280;38802;50.198;19.796;2024-02-04T02:01:27;95963.06;;;5.02;100.00
52935;BME280;38802;50.198;19.796;2024-02-04T02:03:55;95961.50;;;5.02;100.00
52935;BME280;38802;50.198;19.796;2024-02-04T02:06:24;95962.44;;;5.01;100.00
52935;BME280;38802;50.198;19.796;2024-02-04T02:08:53;95953.30;;;5.07;100.00
52935;BME280;38802;50.198;19.796;2024-02-04T02:11:40;95950.48;;;5.05;100.00
52935;BME280;38802;50.198;19.796;2024-02-04T02:14:13;95962.84;;;5.03;100.00
52935;BME280;38802;50.198;19.796;2024-02-04T02:16:44;95959.45;;;5.02;100.00
52935;BME280;38802;50.198;19.796;2024-02-04T02:19:18;95960.13;;;5.02;100.00
52935;BME280;38802;50.198;19.796;2024-02-04T02:21:57;95954.54;;;5.01;100.00
52935;BME280;38802;50.198;19.796;2024-02-04T02:26:56;95954.04;;;5.03;100.00
52935;BME280;38802;50.198;19.796;2024-02-04T02:29:26;95951.60;;;5.04;100.00
52935;BME280;38802;50.198;19.796;2024-02-04T02:31:54;95953.98;;;5.01;100.00
52935;BME280;38802;50.198;19.796;2024-02-04T02:34:23;95964.65;;;5.01;100.00
52935;BME280;38802;50.198;19.796;2024-02-04T02:37:16;95966.27;;;5.01;100.00
52935;BME280;38802;50.198;19.796;2024-02-04T02:39:57;95959.02;;;4.98;100.00
52935;BME280;38802;50.198;19.796;2024-02-04T02:42:28;95954.84;;;4.96;100.00
52935;BME280;38802;50.198;19.796;2024-02-04T02:44:57;95950.29;;;5.00;100.00
52935;BME280;38802;50.198;19.796;2024-02-04T02:47:27;95956.69;;;5.02;100.00
52935;BME280;38802;50.198;19.796;2024-02-04T02:49:56;95952.61;;;5.01;100.00
52935;BME280;38802;50.198;19.796;2024-02-04T02:52:25;95953.48;;;5.01;100.00
52935;BME280;38802;50.198;19.796;2024-02-04T02:54:53;95952.42;;;5.02;100.00
52935;BME280;38802;50.198;19.796;2024-02-04T02:57:23;95959.00;;;4.98;100.00
52935;BME280;38802;50.198;19.796;2024-02-04T02:59:51;95963.30;;;4.93;100.00
52935;BME280;38802;50.198;19.796;2024-02-04T03:02:19;95957.91;;;4.86;100.00
52935;BME280;38802;50.198;19.796;2024-02-04T03:04:47;95955.02;;;4.80;100.00
52935;BME280;38802;50.198;19.796;2024-02-04T03:07:15;95957.14;;;4.76;100.00
52935;BME280;38802;50.198;19.796;2024-02-04T03:09:43;95960.77;;;4.73;100.00
52935;BME280;38802;50.198;19.796;2024-02-04T03:12:12;95962.17;;;4.76;100.00
52935;BME280;38802;50.198;19.796;2024-02-04T03:14:40;95960.59;;;4.70;100.00
52935;BME280;38802;50.198;19.796;2024-02-04T03:17:08;95958.39;;;4.70;100.00
52935;BME280;38802;50.198;19.796;2024-02-04T03:19:36;95950.08;;;4.68;100.00
52935;BME280;38802;50.198;19.796;2024-02-04T03:22:05;95943.35;;;4.63;100.00
52935;BME280;38802;50.198;19.796;2024-02-04T03:24:33;95935.70;;;4.64;100.00
52935;BME280;38802;50.198;19.796;2024-02-04T03:27:02;95939.50;;;4.59;100.00
52935;BME280;38802;50.198;19.796;2024-02-04T03:29:30;95927.29;;;4.56;100.00
52935;BME280;38802;50.198;19.796;2024-02-04T03:31:58;95918.55;;;4.53;100.00
52935;BME280;38802;50.198;19.796;2024-02-04T03:34:26;95915.02;;;4.52;100.00
52935;BME280;38802;50.198;19.796;2024-02-04T03:36:55;95917.09;;;4.46;100.00
52935;BME280;38802;50.198;19.796;2024-02-04T03:39:23;95925.52;;;4.41;100.00
52935;BME280;38802;50.198;19.796;2024-02-04T03:41:51;95933.65;;;4.40;100.00
52935;BME280;38802;50.198;19.796;2024-02-04T03:44:20;95932.47;;;4.37;100.00
52935;BME280;38802;50.198;19.796;2024-02-04T03:46:49;95937.48;;;4.33;100.00
52935;BME280;38802;50.198;19.796;2024-02-04T03:49:18;95936.08;;;4.34;100.00
52935;BME280;38802;50.198;19.796;2024-02-04T03:51:46;95936.19;;;4.35;100.00
52935;BME280;38802;50.198;19.796;2024-02-04T03:54:15;95934.00;;;4.34;100.00
52935;BME280;38802;50.198;19.796;2024-02-04T03:56:43;95929.19;;;4.29;100.00
52935;BME280;38802;50.198;19.796;2024-02-04T03:59:12;95930.67;;;4.29;100.00
52935;BME280;38802;50.198;19.796;2024-02-04T04:14:18;95941.20;;;4.18;100.00
52935;BME280;38802;50.198;19.796;2024-02-04T04:16:46;95941.13;;;4.19;100.00
52935;BME280;38802;50.198;19.796;2024-02-04T04:19:15;95946.75;;;4.15;100.00
52935;BME280;38802;50.198;19.796;2024-02-04T04:21:43;95948.64;;;4.17;100.00
52935;BME280;38802;50.198;19.796;2024-02-04T04:24:11;95958.22;;;4.15;100.00
52935;BME280;38802;50.198;19.796;2024-02-04T04:26:40;95958.34;;;4.16;100.00
52935;BME280;38802;50.198;19.796;2024-02-04T04:29:08;95962.21;;;4.15;100.00
52935;BME280;38802;50.198;19.796;2024-02-04T04:31:36;95953.48;;;4.14;100.00
52935;BME280;38802;50.198;19.796;2024-02-04T04:34:05;95950.42;;;4.16;100.00
52935;BME280;38802;50.198;19.796;2024-02-04T04:36:33;95948.36;;;4.16;100.00
52935;BME280;38802;50.198;19.796;2024-02-04T04:39:02;95944.52;;;4.17;100.00
52935;BME280;38802;50.198;19.796;2024-02-04T04:41:30;95936.64;;;4.17;100.00
52935;BME280;38802;50.198;19.796;2024-02-04T04:43:58;95938.14;;;4.17;100.00
52935;BME280;38802;50.198;19.796;2024-02-04T04:46:26;95943.61;;;4.18;100.00
52935;BME280;38802;50.198;19.796;2024-02-04T04:48:55;95946.88;;;4.18;100.00
52935;BME280;38802;50.198;19.796;2024-02-04T04:51:26;95947.50;;;4.19;100.00
52935;BME280;38802;50.198;19.796;2024-02-04T04:53:55;95944.11;;;4.18;100.00
52935;BME280;38802;50.198;19.796;2024-02-04T04:56:23;95942.23;;;4.18;100.00
52935;BME280;38802;50.198;19.796;2024-02-04T04:58:51;95944.21;;;4.19;100.00
52935;BME280;38802;50.198;19.796;2024-02-04T05:01:19;95936.80;;;4.20;100.00
52935;BME280;38802;50.198;19.796;2024-02-04T05:03:48;95922.75;;;4.22;100.00
52935;BME280;38802;50.198;19.796;2024-02-04T05:06:16;95927.82;;;4.20;100.00
52935;BME280;38802;50.198;19.796;2024-02-04T05:08:44;95932.96;;;4.18;100.00
52935;BME280;38802;50.198;19.796;2024-02-04T05:11:12;95935.48;;;4.19;100.00
52935;BME280;38802;50.198;19.796;2024-02-04T05:13:40;95935.36;;;4.21;100.00
52935;BME280;38802;50.198;19.796;2024-02-04T05:16:08;95942.66;;;4.17;100.00
52935;BME280;38802;50.198;19.796;2024-02-04T05:18:36;95943.42;;;4.21;100.00
52935;BME280;38802;50.198;19.796;2024-02-04T05:21:05;95944.13;;;4.18;100.00
52935;BME280;38802;50.198;19.796;2024-02-04T05:23:33;95940.68;;;4.18;100.00
52935;BME280;38802;50.198;19.796;2024-02-04T05:26:04;95944.16;;;4.20;100.00
52935;BME280;38802;50.198;19.796;2024-02-04T05:28:32;95943.02;;;4.17;100.00
52935;BME280;38802;50.198;19.796;2024-02-04T05:31:01;95946.23;;;4.20;100.00
52935;BME280;38802;50.198;19.796;2024-02-04T05:33:31;95947.45;;;4.20;100.00
52935;BME280;38802;50.198;19.796;2024-02-04T05:35:59;95945.74;;;4.20;100.00
52935;BME280;38802;50.198;19.796;2024-02-04T05:38:27;95941.02;;;4.21;100.00
52935;BME280;38802;50.198;19.796;2024-02-04T05:40:55;95931.69;;;4.22;100.00
52935;BME280;38802;50.198;19.796;2024-02-04T05:43:23;95937.98;;;4.20;100.00
52935;BME280;38802;50.198;19.796;2024-02-04T05:45:51;95947.98;;;4.20;100.00
52935;BME280;38802;50.198;19.796;2024-02-04T05:48:19;95943.25;;;4.16;100.00
52935;BME280;38802;50.198;19.796;2024-02-04T05:50:47;95936.95;;;4.12;100.00
52935;BME280;38802;50.198;19.796;2024-02-04T05:53:16;95944.41;;;4.13;100.00
52935;BME280;38802;50.198;19.796;2024-02-04T05:55:44;95945.48;;;4.13;100.00
52935;BME280;38802;50.198;19.796;2024-02-04T05:58:12;95957.71;;;4.09;100.00
52935;BME280;38802;50.198;19.796;2024-02-04T06:00:41;95955.65;;;4.12;100.00
52935;BME280;38802;50.198;19.796;2024-02-04T06:03:09;95958.10;;;4.12;100.00
52935;BME280;38802;50.198;19.796;2024-02-04T06:05:38;95949.52;;;4.05;100.00
52935;BME280;38802;50.198;19.796;2024-02-04T06:08:06;95952.03;;;4.01;100.00
52935;BME280;38802;50.198;19.796;2024-02-04T06:10:34;95964.34;;;4.02;100.00
52935;BME280;38802;50.198;19.796;2024-02-04T06:13:02;95967.93;;;4.00;100.00
52935;BME280;38802;50.198;19.796;2024-02-04T06:15:30;95959.20;;;3.99;100.00
52935;BME280;38802;50.198;19.796;2024-02-04T06:17:58;95958.15;;;3.97;100.00
52935;BME280;38802;50.198;19.796;2024-02-04T06:20:26;95956.98;;;3.93;100.00
52935;BME280;38802;50.198;19.796;2024-02-04T06:22:54;95939.09;;;3.94;100.00
52935;BME280;38802;50.198;19.796;2024-02-04T06:25:22;95934.43;;;3.91;100.00
52935;BME280;38802;50.198;19.796;2024-02-04T06:27:50;95929.83;;;3.93;100.00
52935;BME280;38802;50.198;19.796;2024-02-04T06:30:19;95939.17;;;3.92;100.00
52935;BME280;38802;50.198;19.796;2024-02-04T06:32:50;95937.58;;;3.93;100.00
52935;BME280;38802;50.198;19.796;2024-02-04T06:35:18;95937.93;;;3.98;100.00
52935;BME280;38802;50.198;19.796;2024-02-04T06:37:46;95943.64;;;4.01;100.00
52935;BME280;38802;50.198;19.796;2024-02-04T06:40:14;95942.20;;;4.02;100.00
52935;BME280;38802;50.198;19.796;2024-02-04T06:42:42;95944.18;;;4.03;100.00
52935;BME280;38802;50.198;19.796;2024-02-04T06:45:10;95941.23;;;4.03;100.00
52935;BME280;38802;50.198;19.796;2024-02-04T06:47:39;95949.23;;;4.05;100.00
52935;BME280;38802;50.198;19.796;2024-02-04T06:50:07;95952.18;;;4.04;100.00
52935;BME280;38802;50.198;19.796;2024-02-04T06:52:36;95949.97;;;4.07;100.00
52935;BME280;38802;50.198;19.796;2024-02-04T06:55:05;95954.25;;;4.10;100.00
52935;BME280;38802;50.198;19.796;2024-02-04T06:57:33;95948.70;;;4.16;100.00
52935;BME280;38802;50.198;19.796;2024-02-04T07:00:02;95954.58;;;4.13;100.00
52935;BME280;38802;50.198;19.796;2024-02-04T07:02:34;95950.21;;;4.11;100.00
52935;BME280;38802;50.198;19.796;2024-02-04T07:05:03;95940.06;;;4.08;100.00
52935;BME280;38802;50.198;19.796;2024-02-04T07:07:31;95937.16;;;4.08;100.00
52935;BME280;38802;50.198;19.796;2024-02-04T07:10:00;95937.98;;;4.08;100.00
52935;BME280;38802;50.198;19.796;2024-02-04T07:12:28;95943.37;;;4.05;100.00
52935;BME280;38802;50.198;19.796;2024-02-04T07:14:57;95942.55;;;4.04;100.00
52935;BME280;38802;50.198;19.796;2024-02-04T07:17:25;95944.44;;;4.04;100.00
52935;BME280;38802;50.198;19.796;2024-02-04T07:19:53;95950.27;;;4.07;100.00
52935;BME280;38802;50.198;19.796;2024-02-04T07:22:21;95962.96;;;4.08;100.00
52935;BME280;38802;50.198;19.796;2024-02-04T07:24:49;95955.29;;;4.07;100.00
52935;BME280;38802;50.198;19.796;2024-02-04T07:27:17;95960.24;;;4.07;100.00
52935;BME280;38802;50.198;19.796;2024-02-04T07:29:45;95967.03;;;4.09;100.00
52935;BME280;38802;50.198;19.796;2024-02-04T07:32:15;95968.59;;;4.08;100.00
52935;BME280;38802;50.198;19.796;2024-02-04T07:34:43;95950.63;;;4.10;100.00
52935;BME280;38802;50.198;19.796;2024-02-04T07:37:11;95955.84;;;4.06;100.00
52935;BME280;38802;50.198;19.796;2024-02-04T07:39:39;95943.08;;;4.07;100.00
52935;BME280;38802;50.198;19.796;2024-02-04T07:42:08;95935.67;;;4.04;100.00
52935;BME280;38802;50.198;19.796;2024-02-04T07:44:36;95945.21;;;4.06;100.00
52935;BME280;38802;50.198;19.796;2024-02-04T07:47:04;95951.58;;;4.11;100.00
52935;BME280;38802;50.198;19.796;2024-02-04T07:49:32;95944.55;;;4.14;100.00
52935;BME280;38802;50.198;19.796;2024-02-04T07:52:00;95946.83;;;4.16;100.00
52935;BME280;38802;50.198;19.796;2024-02-04T07:54:28;95951.98;;;4.13;100.00
52935;BME280;38802;50.198;19.796;2024-02-04T07:56:56;95954.42;;;4.16;100.00
52935;BME280;38802;50.198;19.796;2024-02-04T07:59:24;95957.80;;;4.14;100.00
52935;BME280;38802;50.198;19.796;2024-02-04T08:01:52;95958.64;;;4.14;100.00
52935;BME280;38802;50.198;19.796;2024-02-04T08:04:20;95963.45;;;4.14;100.00
52935;BME280;38802;50.198;19.796;2024-02-04T08:06:49;95960.41;;;4.16;100.00
52935;BME280;38802;50.198;19.796;2024-02-04T08:09:17;95949.97;;;4.18;100.00
52935;BME280;38802;50.198;19.796;2024-02-04T08:11:46;95960.28;;;4.18;100.00
52935;BME280;38802;50.198;19.796;2024-02-04T08:14:14;95965.33;;;4.20;100.00
52935;BME280;38802;50.198;19.796;2024-02-04T08:16:43;95965.83;;;4.17;100.00
52935;BME280;38802;50.198;19.796;2024-02-04T08:19:11;95970.58;;;4.16;100.00
52935;BME280;38802;50.198;19.796;2024-02-04T08:21:39;95975.14;;;4.11;100.00
52935;BME280;38802;50.198;19.796;2024-02-04T08:24:07;95978.25;;;4.11;100.00
52935;BME280;38802;50.198;19.796;2024-02-04T08:26:35;95977.80;;;4.13;100.00
52935;BME280;38802;50.198;19.796;2024-02-04T08:29:03;95983.50;;;4.12;100.00
52935;BME280;38802;50.198;19.796;2024-02-04T08:31:32;95973.02;;;4.12;100.00
52935;BME280;38802;50.198;19.796;2024-02-04T08:34:01;95971.48;;;4.18;100.00
52935;BME280;38802;50.198;19.796;2024-02-04T08:36:30;95977.06;;;4.22;100.00
52935;BME280;38802;50.198;19.796;2024-02-04T08:38:58;95982.32;;;4.26;100.00
52935;BME280;38802;50.198;19.796;2024-02-04T08:41:27;95974.72;;;4.29;100.00
52935;BME280;38802;50.198;19.796;2024-02-04T08:43:55;95983.41;;;4.30;100.00
52935;BME280;38802;50.198;19.796;2024-02-04T08:46:23;95983.71;;;4.31;99.98
52935;BME280;38802;50.198;19.796;2024-02-04T08:48:52;95985.77;;;4.34;100.00
52935;BME280;38802;50.198;19.796;2024-02-04T08:51:20;95979.34;;;4.38;100.00
52935;BME280;38802;50.198;19.796;2024-02-04T08:53:48;95974.02;;;4.46;99.66
52935;BME280;38802;50.198;19.796;2024-02-04T08:56:16;95988.37;;;4.48;99.67
52935;BME280;38802;50.198;19.796;2024-02-04T08:58:47;95990.16;;;4.55;99.77
52935;BME280;38802;50.198;19.796;2024-02-04T09:01:15;95992.21;;;4.61;99.07
52935;BME280;38802;50.198;19.796;2024-02-04T09:03:43;95992.88;;;4.61;98.98
52935;BME280;38802;50.198;19.796;2024-02-04T09:06:11;95995.13;;;4.61;98.70
52935;BME280;38802;50.198;19.796;2024-02-04T09:08:39;95993.89;;;4.58;98.67
52935;BME280;38802;50.198;19.796;2024-02-04T09:11:07;95988.69;;;4.57;99.14
52935;BME280;38802;50.198;19.796;2024-02-04T09:13:35;95987.75;;;4.60;99.07
52935;BME280;38802;50.198;19.796;2024-02-04T09:16:04;96002.52;;;4.61;98.62
52935;BME280;38802;50.198;19.796;2024-02-04T09:18:33;96010.95;;;4.58;98.81
52935;BME280;38802;50.198;19.796;2024-02-04T09:21:01;96008.45;;;4.62;99.25
52935;BME280;38802;50.198;19.796;2024-02-04T09:23:30;95994.87;;;4.67;98.75
52935;BME280;38802;50.198;19.796;2024-02-04T09:25:58;96002.58;;;4.65;98.63
52935;BME280;38802;50.198;19.796;2024-02-04T09:28:26;96003.66;;;4.64;98.93
52935;BME280;38802;50.198;19.796;2024-02-04T09:30:54;96008.13;;;4.65;99.31
52935;BME280;38802;50.198;19.796;2024-02-04T09:33:22;96011.54;;;4.71;99.51
52935;BME280;38802;50.198;19.796;2024-02-04T09:35:50;96010.69;;;4.82;99.37
52935;BME280;38802;50.198;19.796;2024-02-04T09:38:20;96019.42;;;4.85;99.19
52935;BME280;38802;50.198;19.796;2024-02-04T09:40:48;96019.44;;;4.88;98.93
52935;BME280;38802;50.198;19.796;2024-02-04T09:43:17;96010.42;;;4.91;99.26
52935;BME280;38802;50.198;19.796;2024-02-04T09:45:47;96002.76;;;4.98;98.89
52935;BME280;38802;50.198;19.796;2024-02-04T09:48:18;96000.26;;;4.97;99.20
52935;BME280;38802;50.198;19.796;2024-02-04T09:50:49;96001.57;;;5.00;99.20
52935;BME280;38802;50.198;19.796;2024-02-04T09:53:21;95997.28;;;5.03;98.73
52935;BME280;38802;50.198;19.796;2024-02-04T09:55:54;95990.89;;;5.03;97.96
52935;BME280;38802;50.198;19.796;2024-02-04T09:58:23;95990.60;;;4.97;98.16
52935;BME280;38802;50.198;19.796;2024-02-04T10:00:53;95996.33;;;4.99;98.16
52935;BME280;38802;50.198;19.796;2024-02-04T10:03:22;95994.84;;;4.98;98.04
52935;BME280;38802;50.198;19.796;2024-02-04T10:05:51;96006.16;;;5.04;98.22
52935;BME280;38802;50.198;19.796;2024-02-04T10:08:19;96004.45;;;5.12;98.10
52935;BME280;38802;50.198;19.796;2024-02-04T10:10:49;95997.67;;;5.18;97.77
52935;BME280;38802;50.198;19.796;2024-02-04T10:13:17;95991.95;;;5.22;96.91
52935;BME280;38802;50.198;19.796;2024-02-04T10:15:45;95997.89;;;5.20;96.21
52935;BME280;38802;50.198;19.796;2024-02-04T10:18:13;95996.06;;;5.19;96.41
52935;BME280;38802;50.198;19.796;2024-02-04T10:20:42;95987.46;;;5.24;96.17
52935;BME280;38802;50.198;19.796;2024-02-04T10:23:12;95985.84;;;5.26;95.29
52935;BME280;38802;50.198;19.796;2024-02-04T10:25:40;95984.08;;;5.26;95.06
52935;BME280;38802;50.198;19.796;2024-02-04T10:28:11;95988.48;;;5.25;95.14
52935;BME280;38802;50.198;19.796;2024-02-04T10:30:39;95981.44;;;5.25;95.64
52935;BME280;38802;50.198;19.796;2024-02-04T10:33:08;95978.03;;;5.29;95.21
52935;BME280;38802;50.198;19.796;2024-02-04T10:35:36;95973.81;;;5.28;94.41
52935;BME280;38802;50.198;19.796;2024-02-04T10:38:04;95965.41;;;5.22;94.69
52935;BME280;38802;50.198;19.796;2024-02-04T10:40:34;95957.62;;;5.23;94.52
52935;BME280;38802;50.198;19.796;2024-02-04T10:43:04;95961.31;;;5.21;94.57
52935;BME280;38802;50.198;19.796;2024-02-04T10:45:38;95960.56;;;5.22;94.84
52935;BME280;38802;50.198;19.796;2024-02-04T10:48:10;95952.09;;;5.25;94.53
52935;BME280;38802;50.198;19.796;2024-02-04T10:50:39;95951.54;;;5.23;94.48
52935;BME280;38802;50.198;19.796;2024-02-04T10:53:10;95952.05;;;5.18;94.98
52935;BME280;38802;50.198;19.796;2024-02-04T10:55:41;95937.41;;;5.18;95.25
52935;BME280;38802;50.198;19.796;2024-02-04T10:58:13;95939.22;;;5.19;94.69
52935;BME280;38802;50.198;19.796;2024-02-04T11:00:44;95940.48;;;5.18;94.90
52935;BME280;38802;50.198;19.796;2024-02-04T11:03:15;95936.77;;;5.20;95.19
52935;BME280;38802;50.198;19.796;2024-02-04T11:05:44;95926.91;;;5.21;95.36
52935;BME280;38802;50.198;19.796;2024-02-04T11:08:14;95915.66;;;5.24;95.24
52935;BME280;38802;50.198;19.796;2024-02-04T11:10:43;95912.59;;;5.29;94.76
52935;BME280;38802;50.198;19.796;2024-02-04T11:13:11;95904.23;;;5.30;94.82
52935;BME280;38802;50.198;19.796;2024-02-04T11:15:40;95902.77;;;5.39;94.44
52935;BME280;38802;50.198;19.796;2024-02-04T11:21:32;95904.71;;;5.44;94.31
52935;BME280;38802;50.198;19.796;2024-02-04T11:26:56;95890.89;;;5.52;94.08
52935;BME280;38802;50.198;19.796;2024-02-04T11:29:25;95883.79;;;5.62;93.64
52935;BME280;38802;50.198;19.796;2024-02-04T11:31:54;95868.29;;;5.68;93.34
52935;BME280;38802;50.198;19.796;2024-02-04T11:34:26;95870.20;;;5.73;92.78
52935;BME280;38802;50.198;19.796;2024-02-04T11:36:55;95863.05;;;5.76;92.29
52935;BME280;38802;50.198;19.796;2024-02-04T11:39:23;95873.84;;;5.77;91.88
52935;BME280;38802;50.198;19.796;2024-02-04T11:41:53;95874.37;;;5.82;92.43
52935;BME280;38802;50.198;19.796;2024-02-04T11:44:22;95878.30;;;5.87;92.34
52935;BME280;38802;50.198;19.796;2024-02-04T11:46:51;95875.79;;;5.91;91.83
52935;BME280;38802;50.198;19.796;2024-02-04T11:49:25;95868.68;;;5.89;91.93
52935;BME280;38802;50.198;19.796;2024-02-04T11:51:53;95859.02;;;5.94;92.09
52935;BME280;38802;50.198;19.796;2024-02-04T11:54:22;95848.66;;;6.02;91.71
52935;BME280;38802;50.198;19.796;2024-02-04T11:56:51;95835.36;;;6.08;91.66
52935;BME280;38802;50.198;19.796;2024-02-04T11:59:24;95828.02;;;6.09;91.67
52935;BME280;38802;50.198;19.796;2024-02-04T12:01:57;95823.92;;;6.14;91.35
52935;BME280;38802;50.198;19.796;2024-02-04T12:04:27;95822.86;;;6.09;91.33
52935;BME280;38802;50.198;19.796;2024-02-04T12:06:56;95827.73;;;6.08;91.44
52935;BME280;38802;50.198;19.796;2024-02-04T12:09:26;95813.79;;;6.08;91.64
52935;BME280;38802;50.198;19.796;2024-02-04T12:11:54;95811.16;;;6.06;91.77
52935;BME280;38802;50.198;19.796;2024-02-04T12:14:22;95809.63;;;6.06;92.00
52935;BME280;38802;50.198;19.796;2024-02-04T12:16:50;95808.86;;;6.02;92.66
52935;BME280;38802;50.198;19.796;2024-02-04T12:19:19;95807.95;;;6.05;92.40
52935;BME280;38802;50.198;19.796;2024-02-04T12:21:47;95810.20;;;6.00;92.58
52935;BME280;38802;50.198;19.796;2024-02-04T12:24:15;95803.35;;;5.92;93.20
52935;BME280;38802;50.198;19.796;2024-02-04T12:26:44;95793.70;;;5.77;93.98
52935;BME280;38802;50.198;19.796;2024-02-04T12:29:15;95802.16;;;5.67;94.86
52935;BME280;38802;50.198;19.796;2024-02-04T12:31:43;95797.11;;;5.57;95.73
52935;BME280;38802;50.198;19.796;2024-02-04T12:34:13;95797.39;;;5.41;96.22
52935;BME280;38802;50.198;19.796;2024-02-04T12:36:44;95801.15;;;5.26;96.61
52935;BME280;38802;50.198;19.796;2024-02-04T12:39:16;95798.00;;;5.20;97.10
52935;BME280;38802;50.198;19.796;2024-02-04T12:41:51;95798.16;;;5.17;97.84
52935;BME280;38802;50.198;19.796;2024-02-04T12:44:20;95812.84;;;5.11;98.51
52935;BME280;38802;50.198;19.796;2024-02-04T12:46:51;95828.95;;;5.05;99.01
52935;BME280;38802;50.198;19.796;2024-02-04T12:49:21;95837.61;;;4.96;99.54
52935;BME280;38802;50.198;19.796;2024-02-04T12:51:50;95841.25;;;4.91;99.89
52935;BME280;38802;50.198;19.796;2024-02-04T12:54:25;95825.67;;;4.82;99.99
52935;BME280;38802;50.198;19.796;2024-02-04T12:56:54;95831.81;;;4.77;100.00
52935;BME280;38802;50.198;19.796;2024-02-04T12:59:26;95824.95;;;4.71;100.00
52935;BME280;38802;50.198;19.796;2024-02-04T13:01:56;95824.88;;;4.62;100.00
52935;BME280;38802;50.198;19.796;2024-02-04T13:04:24;95814.14;;;4.58;100.00
52935;BME280;38802;50.198;19.796;2024-02-04T13:06:53;95807.98;;;4.52;100.00
52935;BME280;38802;50.198;19.796;2024-02-04T13:09:22;95810.24;;;4.41;100.00
52935;BME280;38802;50.198;19.796;2024-02-04T13:11:51;95810.18;;;4.42;100.00
52935;BME280;38802;50.198;19.796;2024-02-04T13:14:19;95799.23;;;4.41;100.00
52935;BME280;38802;50.198;19.796;2024-02-04T13:16:50;95779.77;;;4.36;100.00
52935;BME280;38802;50.198;19.796;2024-02-04T13:19:19;95771.42;;;4.38;100.00
52935;BME280;38802;50.198;19.796;2024-02-04T13:21:47;95762.99;;;4.38;100.00